createdAt,value
2022-09-10T00:02:22.069Z,100686.16
2022-09-10T00:05:09.129Z,100687.78
2022-09-10T00:07:49.209Z,100677.72
2022-09-10T00:10:36.070Z,100682.97
2022-09-10T00:13:24.084Z,100687.34
2022-09-10T00:16:15.132Z,100672.47
2022-09-10T00:18:55.240Z,100671.72
2022-09-10T00:21:42.067Z,100680.97
2022-09-10T00:24:22.625Z,100676.16
2022-09-10T00:27:09.087Z,100678.94
2022-09-10T00:29:49.129Z,100683.72
2022-09-10T00:32:36.094Z,100684.97
2022-09-10T00:35:16.162Z,100680.13
2022-09-10T00:38:03.095Z,100686.56
2022-09-10T00:40:45.188Z,100681.72
2022-09-10T00:43:33.088Z,100678.50
2022-09-10T00:46:13.124Z,100684.53
2022-09-10T00:49:05.998Z,100679.31
2022-09-10T00:51:54.049Z,100667.66
2022-09-10T00:54:44.041Z,100666.84
2022-09-10T00:57:28.134Z,100668.84
2022-09-10T01:00:19.050Z,100670.09
2022-09-10T01:02:59.340Z,100662.84
2022-09-10T01:05:49.001Z,100666.09
2022-09-10T01:08:36.010Z,100652.84
2022-09-10T01:11:34.730Z,100660.84
2022-09-10T01:14:15.726Z,100654.81
2022-09-10T01:17:29.071Z,100632.34
2022-09-10T01:20:38.323Z,100643.16
2022-09-10T01:24:05.009Z,100642.38
2022-09-10T01:27:06.970Z,100641.16
2022-09-10T01:30:14.641Z,100640.34
2022-09-10T01:33:17.003Z,100642.75
2022-09-10T01:36:01.984Z,100638.75
2022-09-10T01:38:51.969Z,100637.13
2022-09-10T01:41:32.673Z,100637.53
2022-09-10T01:44:59.980Z,100627.94
2022-09-10T01:47:57.947Z,100617.50
2022-09-10T01:51:08.974Z,100618.25
2022-09-10T01:54:17.947Z,100619.50
2022-09-10T01:57:36.058Z,100621.06
2022-09-10T02:00:25.966Z,100614.69
2022-09-10T02:03:27.989Z,100608.63
2022-09-10T02:06:13.414Z,100621.09
2022-09-10T02:09:05.974Z,100611.88
2022-09-10T02:11:52.293Z,100611.88
2022-09-10T02:15:03.975Z,100611.44
2022-09-10T02:18:13.354Z,100603.81
2022-09-10T02:21:03.957Z,100605.81
2022-09-10T02:23:48.987Z,100606.22
2022-09-10T02:26:37.938Z,100604.22
2022-09-10T02:29:31.960Z,100603.41
2022-09-10T02:32:18.901Z,100601.81
2022-09-10T02:35:05.977Z,100594.97
2022-09-10T02:37:46.505Z,100605.00
2022-09-10T02:40:32.945Z,100598.97
2022-09-10T02:43:14.349Z,100589.34
2022-09-10T02:46:00.967Z,100593.34
2022-09-10T02:48:43.423Z,100588.16
2022-09-10T02:51:29.897Z,100603.41
2022-09-10T02:54:10.567Z,100597.78
2022-09-10T02:56:56.937Z,100600.16
2022-09-10T02:59:37.314Z,100603.38
2022-09-10T03:02:24.891Z,100590.97
2022-09-10T03:05:05.704Z,100595.75
2022-09-10T03:26:02.526Z,100583.56
2022-09-10T03:28:50.507Z,100594.44
2022-09-10T03:31:39.565Z,100602.53
2022-09-10T03:34:22.126Z,100594.53
2022-09-10T03:37:08.494Z,100596.16
2022-09-10T03:39:56.538Z,100598.56
2022-09-10T03:42:36.626Z,100605.38
2022-09-10T03:45:24.548Z,100604.19
2022-09-10T03:48:04.591Z,100605.00
2022-09-10T03:50:52.445Z,100611.44
2022-09-10T03:53:33.659Z,100613.88
2022-09-10T03:56:23.463Z,100609.06
2022-09-10T03:59:03.631Z,100603.84
2022-09-10T04:01:50.520Z,100607.06
2022-09-10T04:04:31.959Z,100607.84
2022-09-10T04:07:18.471Z,100610.28
2022-09-10T04:09:58.570Z,100603.50
2022-09-10T04:12:45.443Z,100608.69
2022-09-10T04:15:34.433Z,100609.91
2022-09-10T04:18:21.478Z,100609.53
2022-09-10T04:21:09.450Z,100601.06
2022-09-10T04:24:02.432Z,100613.50
2022-09-10T04:26:42.568Z,100609.91
2022-09-10T04:29:31.436Z,100615.16
2022-09-10T04:32:18.465Z,100617.53
2022-09-10T04:34:59.190Z,100619.94
2022-09-10T04:37:46.413Z,100614.72
2022-09-10T04:40:27.458Z,100616.75
2022-09-10T04:43:15.445Z,100613.50
2022-09-10T04:45:56.345Z,100619.56
2022-09-10T04:48:46.410Z,100623.56
2022-09-10T04:51:29.897Z,100626.38
2022-09-10T04:54:16.441Z,100630.41
2022-09-10T04:57:03.534Z,100628.00
2022-09-10T04:59:44.387Z,100625.56
2022-09-10T05:02:25.110Z,100626.78
2022-09-10T05:05:11.440Z,100619.13
2022-09-10T05:08:00.247Z,100619.53
2022-09-10T05:10:43.411Z,100617.53
2022-09-10T05:13:24.335Z,100624.75
2022-09-10T05:16:13.419Z,100624.34
2022-09-10T05:18:54.472Z,100622.34
2022-09-10T05:21:43.378Z,100623.56
2022-09-10T05:24:32.014Z,100627.16
2022-09-10T05:27:13.416Z,100614.28
2022-09-10T05:29:53.771Z,100602.53
2022-09-10T05:32:40.348Z,100605.41
2022-09-10T05:35:27.352Z,100601.84
2022-09-10T05:38:15.398Z,100601.63
2022-09-10T05:41:03.377Z,100599.47
2022-09-10T05:43:52.346Z,100610.75
2022-09-10T05:46:40.381Z,100613.06
2022-09-10T05:49:22.505Z,100607.00
2022-09-10T05:52:09.349Z,100612.44
2022-09-10T05:54:49.481Z,100616.44
2022-09-10T05:57:37.378Z,100611.84
2022-09-10T06:00:21.454Z,100611.69
2022-09-10T06:03:14.385Z,100615.50
2022-09-10T06:06:04.378Z,100609.34
2022-09-10T06:09:00.322Z,100602.78
2022-09-10T06:11:50.454Z,100610.91
2022-09-10T06:14:38.328Z,100622.91
2022-09-10T06:17:18.524Z,100628.03
2022-09-10T06:20:05.321Z,100619.78
2022-09-10T06:22:47.441Z,100624.59
2022-09-10T06:25:34.325Z,100628.47
2022-09-10T06:28:14.754Z,100629.41
2022-09-10T06:31:01.363Z,100623.88
2022-09-10T06:33:43.437Z,100619.91
2022-09-10T06:36:29.297Z,100621.66
2022-09-10T06:39:16.315Z,100626.72
2022-09-10T06:42:08.316Z,100616.25
2022-09-10T06:45:16.317Z,100629.34
2022-09-10T06:48:37.335Z,100624.09
2022-09-10T06:51:08.322Z,100619.41
2022-09-10T06:53:50.412Z,100618.75
2022-09-10T06:56:37.334Z,100619.78
2022-09-10T06:59:18.491Z,100619.25
2022-09-10T07:02:05.376Z,100617.19
2022-09-10T07:04:45.475Z,100622.66
2022-09-10T07:07:32.283Z,100622.88
2022-09-10T07:10:21.287Z,100620.13
2022-09-10T07:13:08.253Z,100623.50
2022-09-10T07:16:00.297Z,100626.72
2022-09-10T07:18:47.303Z,100618.44
2022-09-10T07:21:38.269Z,100617.59
2022-09-10T07:24:34.301Z,100617.19
2022-09-10T07:27:16.677Z,100630.69
2022-09-10T07:30:04.234Z,100628.28
2022-09-10T07:32:51.434Z,100622.59
2022-09-10T07:35:34.291Z,100636.88
2022-09-10T07:38:17.012Z,100628.09
2022-09-10T07:41:04.258Z,100634.16
2022-09-10T07:43:51.257Z,100637.97
2022-09-10T07:46:35.362Z,100634.50
2022-09-10T07:49:25.241Z,100619.41
2022-09-10T07:52:05.347Z,100629.78
2022-09-10T07:55:01.253Z,100624.03
2022-09-10T07:57:42.390Z,100630.41
2022-09-10T08:00:29.212Z,100623.53
2022-09-10T08:03:13.362Z,100632.28
2022-09-10T08:06:07.238Z,100631.19
2022-09-10T08:08:47.342Z,100616.06
2022-09-10T08:11:34.223Z,100605.28
2022-09-10T08:14:17.368Z,100627.81
2022-09-10T08:17:08.213Z,100617.91
2022-09-10T08:19:51.388Z,100616.03
2022-09-10T08:22:38.215Z,100625.25
2022-09-10T08:25:25.367Z,100627.50
2022-09-10T08:28:05.219Z,100621.97
2022-09-10T08:31:06.787Z,100625.69
2022-09-10T08:33:58.458Z,100618.53
2022-09-10T08:36:47.203Z,100614.56
2022-09-10T08:39:27.476Z,100614.13
2022-09-10T08:42:16.199Z,100609.59
2022-09-10T08:45:09.477Z,100611.75
2022-09-10T08:48:05.227Z,100612.00
2022-09-10T08:51:10.424Z,100615.31
2022-09-10T08:54:04.289Z,100606.28
2022-09-10T08:56:46.320Z,100602.31
2022-09-10T08:59:47.186Z,100594.78
2022-09-10T09:02:49.165Z,100597.00
2022-09-10T09:05:47.162Z,100594.63
2022-09-10T09:08:44.173Z,100580.00
2022-09-10T09:11:59.127Z,100570.59
2022-09-10T09:15:08.710Z,100575.47
2022-09-10T09:18:08.182Z,100560.88
2022-09-10T09:20:55.328Z,100563.97
2022-09-10T09:24:13.209Z,100571.59
2022-09-10T09:27:18.158Z,100561.31
2022-09-10T09:30:09.145Z,100551.97
2022-09-10T09:32:59.151Z,100539.69
2022-09-10T09:36:03.141Z,100546.84
2022-09-10T09:38:52.159Z,100535.69
2022-09-10T09:41:47.039Z,100534.69
2022-09-10T09:44:38.085Z,100522.38
2022-09-10T09:47:18.666Z,100519.53
2022-09-10T09:50:07.293Z,100511.22
2022-09-10T09:52:48.062Z,100526.66
2022-09-10T09:56:00.133Z,100541.06
2022-09-10T09:58:49.414Z,100521.31
2022-09-10T10:01:40.155Z,100522.50
2022-09-10T10:04:26.933Z,100534.47
2022-09-10T10:07:15.080Z,100531.50
2022-09-10T10:10:02.095Z,100535.94
2022-09-10T10:12:56.122Z,100522.78
2022-09-10T10:15:46.157Z,100510.16
2022-09-10T10:18:31.797Z,100517.94
2022-09-10T10:21:19.098Z,100512.06
2022-09-10T10:24:06.106Z,100514.06
2022-09-10T10:26:55.227Z,100504.59
2022-09-10T10:29:35.120Z,100522.97
2022-09-10T10:32:18.183Z,100510.09
2022-09-10T10:35:36.077Z,100516.00
2022-09-10T10:38:31.760Z,100519.09
2022-09-10T10:41:32.092Z,100506.25
2022-09-10T10:44:50.116Z,100504.75
2022-09-10T10:47:30.307Z,100486.81
2022-09-10T10:50:23.045Z,100485.03
2022-09-10T10:53:33.085Z,100483.91
2022-09-10T10:56:20.834Z,100486.34
2022-09-10T10:59:17.102Z,100485.72
2022-09-10T11:02:14.217Z,100474.81
2022-09-10T11:05:05.093Z,100473.25
2022-09-10T11:07:53.023Z,100464.78
2022-09-10T11:10:46.082Z,100474.25
2022-09-10T11:14:02.042Z,100476.09
2022-09-10T11:16:58.705Z,100468.94
2022-09-10T11:19:53.331Z,100470.50
2022-09-10T11:23:04.054Z,100465.69
2022-09-10T11:26:03.149Z,100464.34
2022-09-10T11:29:04.012Z,100473.53
2022-09-10T11:31:52.123Z,100458.06
2022-09-10T11:34:50.018Z,100457.09
2022-09-10T11:37:58.022Z,100463.00
2022-09-10T11:40:41.135Z,100467.03
2022-09-10T11:43:49.045Z,100468.66
2022-09-10T11:46:37.255Z,100474.22
2022-09-10T11:49:30.037Z,100467.31
2022-09-10T11:52:19.010Z,100467.66
2022-09-10T11:55:05.965Z,100465.16
2022-09-10T11:58:41.007Z,100450.09
2022-09-10T12:01:40.159Z,100431.13
2022-09-10T12:04:29.997Z,100434.25
2022-09-10T12:07:19.226Z,100425.97
2022-09-10T12:10:14.978Z,100423.53
2022-09-10T12:13:02.014Z,100421.53
2022-09-10T12:15:49.044Z,100420.09
2022-09-10T12:18:42.901Z,100410.03
2022-09-10T12:21:53.997Z,100413.78
2022-09-10T12:24:52.991Z,100397.88
2022-09-10T12:27:51.970Z,100403.88
2022-09-10T12:30:39.956Z,100399.34
2022-09-10T12:33:27.966Z,100392.56
2022-09-10T12:36:14.978Z,100391.50
2022-09-10T12:39:20.162Z,100392.41
2022-09-10T12:42:07.966Z,100382.16
2022-09-10T12:44:54.959Z,100396.88
2022-09-10T12:47:50.837Z,100389.97
2022-09-10T12:50:43.985Z,100374.88
2022-09-10T12:53:38.098Z,100390.75
2022-09-10T12:57:00.965Z,100380.22
2022-09-10T13:00:22.961Z,100373.00
2022-09-10T13:03:24.027Z,100363.59
2022-09-10T13:06:10.950Z,100360.16
2022-09-10T13:08:57.954Z,100360.28
2022-09-10T13:11:42.090Z,100346.56
2022-09-10T13:14:36.947Z,100350.34
2022-09-10T13:18:07.003Z,100348.41
2022-09-10T13:20:54.957Z,100352.41
2022-09-10T13:23:50.172Z,100353.72
2022-09-10T13:26:43.911Z,100348.88
2022-09-10T13:29:49.890Z,100351.81
2022-09-10T13:32:55.368Z,100333.34
2022-09-10T13:36:07.895Z,100330.53
2022-09-10T13:39:07.808Z,100333.88
2022-09-10T13:42:31.322Z,100329.97
2022-09-10T13:45:36.922Z,100326.69
2022-09-10T13:48:43.394Z,100312.06
2022-09-10T13:51:29.912Z,100314.81
2022-09-10T13:54:41.928Z,100301.78
2022-09-10T13:57:30.796Z,100306.16
2022-09-10T14:00:42.905Z,100307.53
2022-09-10T14:03:29.146Z,100312.50
2022-09-10T14:06:16.887Z,100307.63
2022-09-10T14:09:08.906Z,100306.19
2022-09-10T14:11:50.281Z,100293.47
2022-09-10T14:14:41.847Z,100293.69
2022-09-10T14:17:38.929Z,100293.84
2022-09-10T14:20:40.848Z,100287.03
2022-09-10T14:23:29.885Z,100286.22
2022-09-10T14:26:23.895Z,100289.28
2022-09-10T14:29:08.953Z,100296.16
2022-09-10T14:31:55.825Z,100297.81
2022-09-10T14:34:40.983Z,100306.69
2022-09-10T14:37:44.842Z,100305.59
2022-09-10T14:40:26.949Z,100293.50
2022-09-10T14:43:36.886Z,100287.44
2022-09-10T14:46:59.833Z,100282.19
2022-09-10T14:49:41.734Z,100283.47
2022-09-10T14:52:28.870Z,100281.91
2022-09-10T14:55:10.842Z,100279.38
2022-09-10T14:57:57.852Z,100288.50
2022-09-10T15:00:38.956Z,100291.44
2022-09-10T15:03:28.777Z,100292.69
2022-09-10T15:06:11.256Z,100285.06
2022-09-10T15:08:57.825Z,100295.19
2022-09-10T15:27:46.113Z,100280.31
2022-09-10T15:30:33.129Z,100288.25
2022-09-10T15:33:14.732Z,100281.06
2022-09-10T15:36:01.166Z,100280.22
2022-09-10T15:38:48.116Z,100285.41
2022-09-10T15:41:36.103Z,100282.59
2022-09-10T15:44:25.127Z,100269.72
2022-09-10T15:47:05.678Z,100270.97
2022-09-10T15:49:52.077Z,100260.09
2022-09-10T15:52:39.129Z,100266.22
2022-09-10T15:55:19.573Z,100269.06
2022-09-10T15:58:06.110Z,100266.31
2022-09-10T16:00:46.550Z,100263.16
2022-09-10T16:03:33.118Z,100254.00
2022-09-10T16:06:21.040Z,100243.06
2022-09-10T16:09:10.082Z,100250.75
2022-09-10T16:11:50.318Z,100244.75
2022-09-10T16:14:39.067Z,100251.25
2022-09-10T16:17:27.109Z,100245.22
2022-09-10T16:20:07.766Z,100245.31
2022-09-10T16:22:54.210Z,100253.75
2022-09-10T16:25:41.059Z,100256.97
2022-09-10T16:28:21.278Z,100252.53
2022-09-10T16:31:23.149Z,100254.16
2022-09-10T16:34:12.084Z,100251.44
2022-09-10T16:36:53.118Z,100232.88
2022-09-10T16:39:40.105Z,100237.78
2022-09-10T16:42:20.493Z,100240.19
2022-09-10T16:45:07.084Z,100246.63
2022-09-10T16:47:47.493Z,100251.00
2022-09-10T16:50:34.061Z,100246.59
2022-09-10T16:53:14.436Z,100237.31
2022-09-10T16:56:01.062Z,100234.06
2022-09-10T16:58:45.681Z,100231.72
2022-09-10T17:01:32.060Z,100232.56
2022-09-10T17:04:28.751Z,100232.63
2022-09-10T17:07:09.665Z,100232.66
2022-09-10T17:10:00.582Z,100230.25
2022-09-10T17:12:48.084Z,100231.88
2022-09-10T17:15:35.068Z,100234.25
2022-09-10T17:18:23.056Z,100239.06
2022-09-10T17:21:10.018Z,100233.81
2022-09-10T17:23:50.117Z,100237.81
2022-09-10T17:26:38.017Z,100245.06
2022-09-10T17:29:29.014Z,100243.44
2022-09-10T17:32:09.411Z,100236.59
2022-09-10T17:34:56.013Z,100242.66
2022-09-10T17:37:36.839Z,100235.38
2022-09-10T17:40:25.035Z,100243.81
2022-09-10T17:43:05.361Z,100241.00
2022-09-10T17:45:52.015Z,100237.81
2022-09-10T17:48:34.582Z,100244.69
2022-09-10T17:51:20.960Z,100235.41
2022-09-10T17:54:03.296Z,100234.59
2022-09-10T17:56:49.985Z,100235.00
2022-09-10T17:59:31.252Z,100240.63
2022-09-10T18:02:17.991Z,100240.22
2022-09-10T18:05:05.985Z,100232.63
2022-09-10T18:07:46.261Z,100225.75
2022-09-10T18:10:32.993Z,100223.34
2022-09-10T18:13:14.298Z,100230.22
2022-09-10T18:16:01.079Z,100233.00
2022-09-10T18:18:42.103Z,100243.06
2022-09-10T18:21:39.946Z,100233.78
2022-09-10T18:24:32.954Z,100224.50
2022-09-10T18:27:26.978Z,100216.41
2022-09-10T18:30:07.973Z,100227.69
2022-09-10T18:32:54.938Z,100233.66
2022-09-10T18:35:36.244Z,100243.78
2022-09-10T18:38:23.021Z,100252.59
2022-09-10T18:41:04.046Z,100255.34
2022-09-10T18:43:50.908Z,100260.97
2022-09-10T18:46:45.970Z,100256.53
2022-09-10T18:49:26.992Z,100256.47
2022-09-10T18:52:15.921Z,100252.78
2022-09-10T18:55:02.978Z,100244.72
2022-09-10T18:57:43.094Z,100244.72
2022-09-10T19:00:29.953Z,100239.88
2022-09-10T19:03:11.002Z,100241.88
2022-09-10T19:05:57.922Z,100235.50
2022-09-10T19:08:39.098Z,100253.13
2022-09-10T19:11:27.925Z,100291.34
2022-09-10T19:14:16.906Z,100327.97
2022-09-10T19:16:59.463Z,100306.22
2022-09-10T19:19:47.908Z,100292.53
2022-09-10T19:22:28.285Z,100315.22
2022-09-10T19:25:14.937Z,100279.47
2022-09-10T19:28:08.872Z,100285.63
2022-09-10T19:30:50.344Z,100262.72
2022-09-10T19:33:36.935Z,100278.88
2022-09-10T19:36:20.031Z,100280.88
2022-09-10T19:39:11.918Z,100262.00
2022-09-10T19:41:58.992Z,100255.97
2022-09-10T19:44:39.867Z,100246.78
2022-09-10T19:47:20.248Z,100245.59
2022-09-10T19:50:06.857Z,100245.56
2022-09-10T19:52:47.257Z,100245.53
2022-09-10T19:55:35.868Z,100251.56
2022-09-10T19:58:24.961Z,100229.81
2022-09-10T20:01:04.886Z,100222.97
2022-09-10T20:03:46.117Z,100227.81
2022-09-10T20:06:35.816Z,100237.81
2022-09-10T20:09:22.881Z,100240.63
2022-09-10T20:12:03.486Z,100252.72
2022-09-10T20:14:49.818Z,100246.63
2022-09-10T20:17:30.164Z,100217.72
2022-09-10T20:20:16.808Z,100218.63
2022-09-10T20:22:58.365Z,100235.16
2022-09-10T20:25:44.826Z,100247.19
2022-09-10T20:28:38.904Z,100254.38
2022-09-10T20:31:19.861Z,100261.22
2022-09-10T20:34:12.792Z,100266.88
2022-09-10T20:36:59.787Z,100266.50
2022-09-10T20:39:42.250Z,100271.31
2022-09-10T20:42:30.804Z,100284.16
2022-09-10T20:45:12.002Z,100286.56
2022-09-10T20:47:59.819Z,100306.66
2022-09-10T20:50:39.893Z,100298.25
2022-09-10T20:53:26.819Z,100307.06
2022-09-10T20:56:29.804Z,100301.91
2022-09-10T20:59:19.317Z,100310.34
2022-09-10T21:01:58.838Z,100324.78
2022-09-10T21:04:45.822Z,100330.41
2022-09-10T21:07:32.781Z,100329.22
2022-09-10T21:10:19.756Z,100321.19
2022-09-10T21:13:08.771Z,100337.25
2022-09-10T21:15:49.201Z,100340.06
2022-09-10T21:18:35.762Z,100338.84
2022-09-10T21:21:18.481Z,100330.03
2022-09-10T21:24:11.784Z,100340.84
2022-09-10T21:27:05.806Z,100343.25
2022-09-10T21:29:47.172Z,100343.63
2022-09-10T21:32:33.731Z,100333.19
2022-09-10T21:35:20.773Z,100317.53
2022-09-10T21:38:07.747Z,100315.97
2022-09-10T21:41:07.809Z,100323.56
2022-09-10T21:43:52.847Z,100300.31
2022-09-10T21:46:40.829Z,100309.94
2022-09-10T21:49:21.896Z,100310.78
2022-09-10T21:52:09.739Z,100296.75
2022-09-10T21:54:49.870Z,100287.94
2022-09-10T21:57:37.776Z,100283.53
2022-09-10T22:00:20.809Z,100291.94
2022-09-10T22:03:07.775Z,100289.94
2022-09-10T22:05:47.857Z,100292.34
2022-09-10T22:08:34.719Z,100297.56
2022-09-10T22:11:17.085Z,100289.13
2022-09-10T22:14:07.737Z,100286.72
2022-09-10T22:16:54.721Z,100286.75
2022-09-10T22:19:35.771Z,100280.72
2022-09-10T22:22:22.687Z,100275.91
2022-09-10T22:25:09.658Z,100278.31
2022-09-10T22:27:56.736Z,100279.53
2022-09-10T22:30:37.596Z,100274.28
2022-09-10T22:33:24.721Z,100283.53
2022-09-10T22:36:32.682Z,100277.09
2022-09-10T22:39:23.671Z,100278.69
2022-09-10T22:42:07.615Z,100268.28
2022-09-10T22:44:54.678Z,100285.91
2022-09-10T22:47:41.805Z,100301.56
2022-09-10T22:50:21.687Z,100289.91
2022-09-10T22:53:02.063Z,100269.47
2022-09-10T22:55:48.633Z,100249.75
2022-09-10T22:58:35.656Z,100250.13
2022-09-10T23:01:24.680Z,100244.16
2022-09-10T23:04:07.141Z,100237.31
2022-09-10T23:06:53.703Z,100242.53
2022-09-10T23:09:34.047Z,100242.06
2022-09-10T23:12:20.671Z,100222.84
2022-09-10T23:15:01.847Z,100218.06
2022-09-10T23:17:48.654Z,100223.22
2022-09-10T23:20:35.613Z,100224.47
2022-09-10T23:23:22.634Z,100218.06
2022-09-10T23:26:21.668Z,100219.22
2022-09-10T23:29:10.625Z,100220.78
2022-09-10T23:31:53.493Z,100230.38
2022-09-10T23:34:40.611Z,100228.81
2022-09-10T23:37:27.656Z,100222.44
2022-09-10T23:40:20.999Z,100212.84
2022-09-10T23:43:02.734Z,100215.63
2022-09-10T23:45:50.637Z,100224.84
2022-09-10T23:48:31.813Z,100222.84
2022-09-10T23:51:23.619Z,100227.25
2022-09-10T23:54:10.626Z,100225.66
2022-09-10T23:56:58.635Z,100229.28
2022-09-10T23:59:45.591Z,100227.63
